Time;durP1;ratioP1;P1;durP2;ratioP2;P2;SDS_P1;SDS_P2;PMS_P1;PMS_P2;Temp;Humidity;BMP_temperature;BMP_pressure;BME280_temperature;BME280_humidity;BME280_pressure;Samples;Min_cycle;Max_cycle;Signal;HPM_P1;HPM_P2
2022/06/12 00:00:19;;;;;;;13.95;2.78;;;14.00;99.90;;;;;;5032149;28;20493;-71
2022/06/12 00:02:45;;;;;;;10.82;3.08;;;14.00;99.90;;;;;;5015496;28;20037;-71
2022/06/12 00:05:13;;;;;;;9.88;2.65;;;14.00;99.90;;;;;;5031860;28;20042;-71
2022/06/12 00:07:39;;;;;;;14.23;2.75;;;13.90;99.90;;;;;;5031674;28;20049;-71
2022/06/12 00:10:05;;;;;;;9.35;3.00;;;13.90;99.90;;;;;;5031779;28;20082;-71
2022/06/12 00:12:31;;;;;;;8.52;2.95;;;13.90;99.90;;;;;;5031718;28;20049;-71
2022/06/12 00:14:57;;;;;;;11.70;3.33;;;13.90;99.90;;;;;;5031761;28;20052;-71
2022/06/12 00:17:22;;;;;;;12.55;3.55;;;13.90;99.90;;;;;;5031642;28;20042;-71
2022/06/12 00:19:49;;;;;;;11.77;3.05;;;13.80;99.90;;;;;;5031750;28;20124;-71
2022/06/12 00:22:16;;;;;;;10.98;3.03;;;13.80;99.90;;;;;;5035760;28;20118;-71
2022/06/12 00:24:42;;;;;;;9.70;3.00;;;13.80;99.90;;;;;;5035826;28;20088;-71
2022/06/12 00:27:07;;;;;;;13.05;3.47;;;13.80;99.90;;;;;;5035685;28;20041;-71
2022/06/12 00:29:35;;;;;;;8.48;3.08;;;13.80;99.90;;;;;;5035680;28;20042;-71
2022/06/12 00:32:03;;;;;;;12.35;2.88;;;13.80;99.90;;;;;;5035908;28;20037;-71
2022/06/12 00:34:33;;;;;;;13.25;3.00;;;13.70;99.90;;;;;;5036352;28;20053;-70
2022/06/12 00:36:59;;;;;;;9.00;2.90;;;13.80;99.90;;;;;;5035749;28;20055;-71
2022/06/12 00:39:26;;;;;;;13.70;3.47;;;13.70;99.90;;;;;;5035487;28;20552;-71
2022/06/12 00:41:54;;;;;;;15.40;3.60;;;13.70;99.90;;;;;;5035771;28;20041;-71
2022/06/12 00:44:24;;;;;;;10.10;3.20;;;13.70;99.90;;;;;;5035380;28;20037;-71
2022/06/12 00:46:57;;;;;;;11.95;2.78;;;13.70;99.90;;;;;;5035334;28;20041;-71
2022/06/12 00:49:25;;;;;;;;;;;13.70;99.90;;;;;;5036215;28;20042;-71
2022/06/12 00:52:10;;;;;;;10.65;2.50;;;13.60;99.90;;;;;;5035514;28;20029;-70
2022/06/12 00:54:39;;;;;;;9.98;2.65;;;13.60;99.90;;;;;;5035208;28;20077;-71
2022/06/12 00:57:07;;;;;;;8.57;2.25;;;13.50;99.90;;;;;;5035362;28;20087;-71
2022/06/12 00:59:37;;;;;;;5.70;2.20;;;13.60;99.90;;;;;;5035150;28;20049;-71
2022/06/12 01:02:06;;;;;;;8.85;2.78;;;13.60;99.90;;;;;;5035124;28;20042;-71
2022/06/12 01:07:20;;;;;;;9.18;2.65;;;13.60;99.90;;;;;;5035188;28;20037;-71
2022/06/12 01:09:48;;;;;;;10.20;2.95;;;13.50;99.90;;;;;;5034949;28;20049;-70
2022/06/12 01:12:18;;;;;;;9.05;2.50;;;13.50;99.90;;;;;;5018391;28;20038;-70
2022/06/12 01:14:51;;;;;;;11.55;2.90;;;13.50;99.90;;;;;;5034801;28;20084;-70
2022/06/12 01:17:18;;;;;;;;;;;13.50;99.90;;;;;;5035415;28;20041;-71
2022/06/12 01:19:50;;;;;;;10.75;2.85;;;13.40;99.90;;;;;;5018635;28;20384;-71
2022/06/12 01:22:34;;;;;;;7.38;2.55;;;13.40;99.90;;;;;;5034828;28;20120;-70
2022/06/12 01:25:24;;;;;;;7.97;2.53;;;13.50;99.90;;;;;;5034587;28;20528;-70
2022/06/12 01:27:59;;;;;;;8.57;2.38;;;13.40;99.90;;;;;;5018341;28;20049;-71
2022/06/12 01:30:44;;;;;;;11.10;2.83;;;13.40;99.90;;;;;;5034553;28;20517;-70
2022/06/12 01:33:20;;;;;;;6.78;2.03;;;13.40;99.90;;;;;;5034520;28;20509;-71
2022/06/12 01:36:13;;;;;;;8.38;2.53;;;13.40;99.90;;;;;;5034448;28;20449;-70
2022/06/12 01:39:03;;;;;;;7.55;2.60;;;13.40;99.90;;;;;;5020563;28;20050;-71
2022/06/12 01:41:41;;;;;;;9.05;2.88;;;13.40;99.90;;;;;;5034705;28;20052;-71
2022/06/12 01:44:38;;;;;;;9.00;2.40;;;13.40;99.90;;;;;;5034321;28;20128;-70
2022/06/12 01:47:26;;;;;;;7.15;2.20;;;13.40;99.90;;;;;;5028727;28;20053;-71
2022/06/12 01:50:19;;;;;;;9.15;2.30;;;13.40;99.90;;;;;;5017764;28;20103;-70
2022/06/12 01:52:55;;;;;;;12.90;2.80;;;13.40;99.90;;;;;;5034143;28;20046;-70
2022/06/12 01:55:29;;;;;;;6.28;2.08;;;13.30;99.90;;;;;;5017854;28;20037;-70
2022/06/12 01:58:00;;;;;;;7.70;2.47;;;13.20;99.90;;;;;;5034328;28;20589;-70
2022/06/12 02:00:27;;;;;;;9.50;2.30;;;13.20;99.90;;;;;;5034017;28;20044;-70
2022/06/12 02:03:16;;;;;;;10.02;2.13;;;13.20;99.90;;;;;;5033975;28;20045;-70
2022/06/12 02:05:56;;;;;;;12.23;2.53;;;13.20;99.90;;;;;;5033982;28;20080;-70
2022/06/12 02:08:37;;;;;;;11.27;2.72;;;13.10;99.90;;;;;;5034010;28;20103;-71
2022/06/12 02:14:03;;;;;;;10.75;2.55;;;13.10;99.90;;;;;;5033659;28;20421;-70
2022/06/12 02:16:37;;;;;;;9.77;2.28;;;13.00;99.90;;;;;;5033719;28;20047;-70
2022/06/12 02:19:10;;;;;;;10.23;2.63;;;13.00;99.90;;;;;;5033663;28;20520;-70
2022/06/12 02:21:48;;;;;;;6.35;2.42;;;13.00;99.90;;;;;;5033933;28;20401;-70
2022/06/12 02:24:24;;;;;;;10.57;2.95;;;13.00;99.90;;;;;;5033852;28;20045;-70
2022/06/12 02:27:03;;;;;;;9.00;2.38;;;13.00;99.90;;;;;;5033453;28;20072;-71
2022/06/12 02:29:46;;;;;;;12.80;2.40;;;13.00;99.90;;;;;;5033809;28;20041;-70
2022/06/12 02:32:28;;;;;;;9.88;2.28;;;12.90;99.90;;;;;;5033423;28;20409;-70
2022/06/12 02:35:12;;;;;;;5.90;2.50;;;12.90;99.90;;;;;;5033417;28;20104;-70
2022/06/12 02:37:42;;;;;;;10.20;2.60;;;12.90;99.90;;;;;;5033281;28;20033;-71
2022/06/12 02:40:31;;;;;;;9.13;2.38;;;12.80;99.90;;;;;;5033606;28;20045;-70
2022/06/12 02:42:59;;;;;;;6.78;2.00;;;12.80;99.90;;;;;;5015765;28;20041;-70
2022/06/12 02:45:34;;;;;;;8.65;2.10;;;12.70;99.90;;;;;;5033188;28;20038;-71
2022/06/12 02:48:00;;;;;;;9.18;2.97;;;12.80;99.90;;;;;;5016704;28;20508;-70
2022/06/12 02:50:31;;;;;;;8.05;2.35;;;12.80;99.90;;;;;;5033284;28;20374;-70
2022/06/12 02:53:18;;;;;;;9.07;2.00;;;12.80;99.90;;;;;;5032968;28;20490;-70
2022/06/12 02:55:57;;;;;;;7.40;2.10;;;12.80;99.90;;;;;;5032907;28;20448;-70
2022/06/12 02:58:45;;;;;;;9.27;2.00;;;12.80;99.90;;;;;;5032827;28;20041;-71
2022/06/12 03:01:15;;;;;;;15.48;2.63;;;12.80;99.90;;;;;;5033081;28;20088;-70
2022/06/12 03:03:58;;;;;;;9.43;2.20;;;12.70;99.90;;;;;;5033096;28;20114;-70
2022/06/12 03:06:29;;;;;;;7.15;2.15;;;12.70;99.90;;;;;;5033038;28;20132;-70
2022/06/12 03:08:58;;;;;;;9.40;2.47;;;12.70;99.90;;;;;;5032711;28;20083;-70
2022/06/12 03:11:35;;;;;;;8.00;2.40;;;12.70;99.90;;;;;;5016472;28;20041;-70
2022/06/12 03:14:12;;;;;;;6.43;2.00;;;12.80;99.90;;;;;;5032702;28;20468;-70
2022/06/12 03:16:41;;;;;;;10.15;2.55;;;12.70;99.90;;;;;;5032598;28;20095;-71
2022/06/12 03:19:09;;;;;;;9.32;2.22;;;12.80;99.90;;;;;;5032440;28;20408;-70
2022/06/12 03:21:49;;;;;;;7.10;1.98;;;12.80;99.90;;;;;;5032504;28;20037;-70
2022/06/12 03:24:58;;;;;;;8.57;2.42;;;12.80;99.90;;;;;;5032365;28;20049;-71
2022/06/12 03:27:54;;;;;;;10.55;1.98;;;12.80;99.90;;;;;;5032191;28;20045;-71
2022/06/12 03:30:35;;;;;;;7.25;2.25;;;12.80;99.90;;;;;;5032410;28;20501;-70
2022/06/12 03:33:31;;;;;;;9.80;2.20;;;12.70;99.90;;;;;;5032238;28;20497;-74
2022/06/12 03:36:05;;;;;;;6.85;2.08;;;12.70;99.90;;;;;;5032273;28;20037;-74
2022/06/12 03:38:43;;;;;;;8.55;2.58;;;12.70;99.90;;;;;;5032136;28;20048;-74
2022/06/12 03:41:42;;;;;;;8.93;2.70;;;12.70;99.90;;;;;;5032213;28;20559;-74
2022/06/12 03:44:26;;;;;;;10.85;2.22;;;12.80;99.90;;;;;;5031701;28;20456;-75
2022/06/12 03:47:03;;;;;;;11.65;3.67;;;12.80;99.90;;;;;;5032001;28;20140;-73
2022/06/12 03:49:39;;;;;;;10.90;2.80;;;12.80;99.90;;;;;;5032146;28;20048;-74
2022/06/12 03:52:14;;;;;;;8.80;2.92;;;12.80;99.90;;;;;;5033157;28;20068;-74
2022/06/12 03:55:08;;;;;;;9.70;2.63;;;12.80;99.90;;;;;;5031753;28;20045;-75
2022/06/12 03:57:52;;;;;;;;;;;12.80;99.90;;;;;;5032350;28;20048;-74
2022/06/12 04:00:32;;;;;;;8.80;2.25;;;12.80;99.90;;;;;;5015483;28;19920;-74
2022/06/12 04:03:04;;;;;;;10.80;3.33;;;12.80;99.90;;;;;;5032188;28;20045;-75
2022/06/12 04:05:50;;;;;;;10.93;2.85;;;12.80;99.90;;;;;;5031854;28;20084;-75
2022/06/12 04:08:19;;;;;;;10.02;2.95;;;12.90;99.90;;;;;;5015941;28;20046;-74
2022/06/12 04:10:46;;;;;;;10.20;2.75;;;12.80;99.90;;;;;;5031867;28;20041;-74
2022/06/12 04:13:14;;;;;;;9.85;2.60;;;12.80;99.90;;;;;;5031775;28;20038;-75
2022/06/12 04:15:40;;;;;;;8.77;2.67;;;12.90;99.90;;;;;;5032008;28;20099;-74
2022/06/12 04:18:06;;;;;;;11.85;3.13;;;12.90;99.90;;;;;;5015532;28;20501;-74
2022/06/12 04:20:55;;;;;;;6.90;2.58;;;12.90;99.90;;;;;;5031750;28;20037;-74
2022/06/12 04:23:49;;;;;;;12.75;2.88;;;13.00;99.90;;;;;;5015306;28;20038;-74
2022/06/12 04:26:31;;;;;;;12.57;3.33;;;13.10;99.90;;;;;;5031989;28;20077;-74
2022/06/12 04:29:10;;;;;;;12.73;2.97;;;13.10;99.90;;;;;;5031658;28;20042;-74
2022/06/12 04:31:37;;;;;;;9.57;3.03;;;13.10;99.90;;;;;;5015205;28;20041;-75
2022/06/12 04:34:13;;;;;;;16.77;2.92;;;13.20;99.90;;;;;;5031674;28;20080;-75
2022/06/12 04:36:41;;;;;;;10.55;2.67;;;13.20;99.90;;;;;;5015215;28;20378;-75
2022/06/12 04:39:12;;;;;;;11.02;3.03;;;13.20;99.90;;;;;;5015088;28;20037;-74
2022/06/12 04:41:38;;;;;;;8.20;2.60;;;13.20;99.90;;;;;;5031855;28;20037;-74
2022/06/12 04:44:05;;;;;;;8.63;2.40;;;13.20;99.90;;;;;;5031532;28;20456;-74
2022/06/12 04:46:33;;;;;;;7.15;2.47;;;13.30;99.90;;;;;;5031518;28;20041;-74
2022/06/12 04:48:59;;;;;;;10.88;2.70;;;13.30;99.90;;;;;;5031564;28;20125;-74
2022/06/12 04:51:25;;;;;;;12.07;2.92;;;13.40;99.90;;;;;;5031469;28;20088;-75
2022/06/12 04:53:51;;;;;;;11.63;2.88;;;13.40;99.90;;;;;;5031422;28;20053;-75
2022/06/12 04:56:20;;;;;;;12.45;3.10;;;13.50;99.90;;;;;;5031447;28;20037;-75
2022/06/12 04:58:46;;;;;;;9.80;2.80;;;13.50;99.90;;;;;;5031288;28;20044;-74
2022/06/12 05:01:11;;;;;;;11.25;2.63;;;13.60;99.90;;;;;;5031650;28;20045;-75
2022/06/12 05:03:38;;;;;;;9.63;2.30;;;13.70;99.90;;;;;;5031359;28;20038;-75
2022/06/12 05:06:04;;;;;;;9.63;2.60;;;13.80;99.90;;;;;;5031568;28;20044;-75
2022/06/12 05:08:31;;;;;;;8.93;2.45;;;13.80;99.90;;;;;;5034951;28;20044;-74
2022/06/12 05:10:57;;;;;;;9.93;2.28;;;13.90;99.90;;;;;;5035234;28;20037;-74
2022/06/12 05:13:23;;;;;;;8.00;2.35;;;13.90;99.90;;;;;;5035023;28;20033;-75
2022/06/12 05:15:49;;;;;;;13.43;2.70;;;14.00;99.90;;;;;;5035135;28;20045;-74
2022/06/12 05:18:17;;;;;;;10.90;2.95;;;14.00;99.90;;;;;;5018517;28;20120;-74
2022/06/12 05:20:43;;;;;;;12.88;2.60;;;14.10;99.90;;;;;;5034765;28;20041;-74
2022/06/12 05:23:09;;;;;;;10.93;3.17;;;14.10;99.90;;;;;;5018449;28;20542;-75
2022/06/12 05:25:36;;;;;;;10.43;2.33;;;14.20;99.90;;;;;;5034707;28;20072;-74
2022/06/12 05:28:03;;;;;;;13.95;2.85;;;14.30;99.90;;;;;;5034811;28;20489;-74
2022/06/12 05:30:31;;;;;;;11.63;2.95;;;14.30;99.90;;;;;;5018379;28;20407;-74
2022/06/12 05:32:59;;;;;;;11.15;2.90;;;14.30;99.90;;;;;;5034475;28;20041;-74
2022/06/12 05:35:27;;;;;;;9.43;2.70;;;14.40;99.90;;;;;;5034521;28;20045;-74
2022/06/12 05:37:53;;;;;;;11.23;2.88;;;14.40;99.90;;;;;;5034368;28;20498;-74
2022/06/12 05:40:22;;;;;;;16.05;2.88;;;14.50;99.90;;;;;;5034359;28;20512;-74
2022/06/12 05:42:49;;;;;;;10.63;2.70;;;14.60;99.90;;;;;;5034372;28;20413;-75
2022/06/12 05:45:19;;;;;;;15.48;3.05;;;14.60;99.90;;;;;;5034360;28;20444;-75
2022/06/12 05:47:55;;;;;;;12.70;3.30;;;14.70;99.90;;;;;;5034305;28;20041;-74
2022/06/12 05:50:23;;;;;;;13.32;3.38;;;14.80;99.90;;;;;;5034195;28;20037;-75
2022/06/12 05:52:48;;;;;;;13.68;3.30;;;14.90;99.90;;;;;;5034357;28;20072;-75
2022/06/12 05:55:15;;;;;;;14.73;3.28;;;15.00;99.90;;;;;;5034132;28;20080;-75
2022/06/12 05:57:40;;;;;;;16.23;3.40;;;15.00;99.90;;;;;;5033908;28;20045;-74
2022/06/12 06:00:11;;;;;;;12.57;3.47;;;15.10;99.90;;;;;;5017564;28;20042;-74
2022/06/12 06:02:38;;;;;;;12.20;3.20;;;15.10;99.90;;;;;;5034039;28;20033;-75
2022/06/12 06:05:06;;;;;;;17.67;3.63;;;15.10;99.90;;;;;;5034031;28;20041;-75
2022/06/12 06:07:33;;;;;;;13.80;3.60;;;15.10;99.90;;;;;;5034128;28;20049;-74
2022/06/12 06:09:59;;;;;;;16.35;3.30;;;15.30;99.90;;;;;;5033929;28;20119;-74
2022/06/12 06:12:24;;;;;;;11.32;3.00;;;15.30;99.90;;;;;;5034100;28;20038;-75
2022/06/12 06:14:50;;;;;;;14.95;3.60;;;15.40;99.90;;;;;;5033724;28;20485;-75
2022/06/12 06:17:15;;;;;;;16.23;3.92;;;15.50;99.90;;;;;;5033618;28;20087;-74
2022/06/12 06:19:41;;;;;;;14.68;3.60;;;15.60;99.90;;;;;;5033674;28;20041;-74
2022/06/12 06:22:06;;;;;;;17.60;3.90;;;15.60;99.90;;;;;;5017097;28;20038;-75
2022/06/12 06:24:32;;;;;;;16.45;3.97;;;15.70;99.90;;;;;;5033625;28;20037;-75
2022/06/12 06:26:57;;;;;;;15.80;3.70;;;15.80;99.90;;;;;;5033713;28;20041;-73
2022/06/12 06:29:23;;;;;;;14.10;3.45;;;15.80;99.90;;;;;;5033486;28;20037;-74
2022/06/12 06:31:48;;;;;;;19.27;3.72;;;15.90;99.90;;;;;;5033655;28;20103;-75
2022/06/12 06:34:14;;;;;;;16.40;3.80;;;16.00;99.90;;;;;;5033350;28;20497;-75
2022/06/12 06:36:40;;;;;;;12.15;3.78;;;16.10;99.90;;;;;;5033368;28;20038;-75
2022/06/12 06:39:06;;;;;;;13.57;3.65;;;16.20;99.90;;;;;;5033211;28;20082;-74
2022/06/12 06:41:32;;;;;;;17.17;4.00;;;16.20;99.90;;;;;;5033268;28;20524;-75
2022/06/12 06:46:42;;;;;;;17.88;4.60;;;16.40;99.90;;;;;;5033160;28;20046;-74
2022/06/12 06:49:08;;;;;;;19.63;5.18;;;16.50;99.90;;;;;;5057580;22;20059;-68
2022/06/12 06:51:34;;;;;;;16.25;4.47;;;16.60;99.90;;;;;;5033096;28;20401;-69
2022/06/12 06:54:00;;;;;;;15.68;4.15;;;16.70;99.90;;;;;;5032988;28;20120;-69
2022/06/12 06:56:26;;;;;;;20.65;4.28;;;16.80;99.90;;;;;;5033271;28;20049;-69
2022/06/12 06:58:52;;;;;;;24.05;5.10;;;16.80;99.90;;;;;;5032878;28;20033;-69
2022/06/12 07:01:18;;;;;;;14.98;4.35;;;16.90;99.90;;;;;;5032820;28;20040;-69
2022/06/12 07:03:44;;;;;;;19.08;5.22;;;17.10;99.90;;;;;;5032833;28;20076;-69
2022/06/12 07:06:12;;;;;;;18.80;4.32;;;17.20;99.90;;;;;;5032803;28;20083;-69
2022/06/12 07:08:38;;;;;;;21.20;4.40;;;17.30;99.90;;;;;;5032692;28;20079;-69
2022/06/12 07:11:04;;;;;;;15.88;4.25;;;17.30;99.90;;;;;;5032941;28;20508;-69
2022/06/12 07:13:30;;;;;;;18.65;5.07;;;17.40;99.90;;;;;;5032772;28;20084;-69
2022/06/12 07:15:55;;;;;;;20.65;4.97;;;17.50;99.90;;;;;;5033710;28;20494;-69
2022/06/12 07:18:22;;;;;;;19.02;4.55;;;17.50;99.90;;;;;;5032883;28;20069;-69
2022/06/12 07:20:54;;;;;;;22.63;4.97;;;17.70;99.90;;;;;;5032552;28;20053;-69
2022/06/12 07:23:22;;;;;;;20.20;4.80;;;17.70;99.90;;;;;;5032509;28;20045;-69
2022/06/12 07:25:51;;;;;;;15.77;4.38;;;17.80;99.90;;;;;;5032509;28;20045;-69
2022/06/12 07:28:18;;;;;;;21.92;4.63;;;17.90;99.90;;;;;;5032335;28;20053;-68
2022/06/12 07:30:44;;;;;;;14.88;4.53;;;18.00;99.90;;;;;;5032213;28;20063;-69
2022/06/12 07:33:10;;;;;;;18.15;4.43;;;18.00;99.90;;;;;;5032500;28;20081;-69
2022/06/12 07:35:38;;;;;;;22.70;5.32;;;18.10;99.90;;;;;;5032277;28;20456;-68
2022/06/12 07:38:04;;;;;;;17.63;4.60;;;18.20;99.90;;;;;;5032158;28;20159;-68
2022/06/12 07:40:35;;;;;;;17.63;4.13;;;18.40;99.90;;;;;;5032251;28;20504;-68
2022/06/12 07:43:01;;;;;;;21.83;4.47;;;18.50;99.90;;;;;;5032241;28;20045;-69
2022/06/12 07:45:27;;;;;;;18.60;4.80;;;18.70;99.90;;;;;;5032415;28;20091;-69
2022/06/12 07:47:52;;;;;;;18.25;4.30;;;18.80;99.90;;;;;;5031961;28;20399;-69
2022/06/12 07:50:18;;;;;;;17.15;3.90;;;18.70;99.90;;;;;;5032080;28;20037;-69
2022/06/12 07:52:44;;;;;;;25.02;4.45;;;18.70;99.90;;;;;;5032265;28;20067;-69
2022/06/12 07:55:14;;;;;;;20.90;4.30;;;18.70;99.90;;;;;;5015887;28;20045;-69
2022/06/12 07:57:40;;;;;;;18.38;4.22;;;18.80;99.90;;;;;;5032828;28;20052;-69
2022/06/12 08:00:08;;;;;;;16.77;4.15;;;18.90;99.90;;;;;;5031937;28;20405;-69
2022/06/12 08:02:34;;;;;;;16.08;4.35;;;19.00;99.90;;;;;;5031875;28;20123;-69
2022/06/12 08:04:59;;;;;;;19.35;4.65;;;18.90;99.90;;;;;;5031897;28;20088;-69
2022/06/12 08:07:25;;;;;;;17.08;3.92;;;19.00;99.90;;;;;;5031776;28;20037;-69
2022/06/12 08:09:50;;;;;;;16.63;4.32;;;19.00;99.90;;;;;;5031854;28;20060;-69
2022/06/12 08:12:16;;;;;;;16.38;4.47;;;19.00;99.90;;;;;;5033077;28;20092;-69
2022/06/12 08:14:42;;;;;;;16.75;4.30;;;19.10;99.90;;;;;;5015303;28;20087;-69
2022/06/12 08:17:07;;;;;;;19.10;4.55;;;19.30;99.90;;;;;;5031767;28;20037;-69
2022/06/12 08:22:18;;;;;;;18.80;3.92;;;19.60;99.90;;;;;;5031787;28;20145;-69
2022/06/12 08:24:45;;;;;;;13.60;3.85;;;19.70;99.90;;;;;;5031959;28;20128;-69
2022/06/12 08:27:11;;;;;;;16.80;4.15;;;19.90;99.90;;;;;;5015524;28;20037;-69
2022/06/12 08:29:38;;;;;;;21.05;4.53;;;20.00;99.90;;;;;;5031634;28;20045;-69
2022/06/12 08:32:12;;;;;;;16.33;4.20;;;20.10;99.90;;;;;;5031648;28;20496;-69
2022/06/12 08:34:42;;;;;;;15.30;4.53;;;20.20;99.90;;;;;;5031672;28;20490;-68
2022/06/12 08:37:12;;;;;;;19.33;4.80;;;20.30;99.90;;;;;;5015213;28;20037;-68
2022/06/12 08:39:38;;;;;;;18.48;4.63;;;20.40;99.90;;;;;;5031785;28;20416;-68
2022/06/12 08:42:26;;;;;;;18.13;4.68;;;20.50;99.90;;;;;;5033417;28;20485;-68
2022/06/12 08:45:10;;;;;;;15.73;4.20;;;20.50;99.90;;;;;;5018967;28;20420;-68
2022/06/12 08:47:59;;;;;;;14.68;4.32;;;20.60;99.90;;;;;;5035516;28;20505;-68
2022/06/12 08:50:40;;;;;;;19.30;4.00;;;20.90;99.90;;;;;;5023251;28;20520;-69
2022/06/12 08:53:10;;;;;;;16.08;4.65;;;21.10;99.90;;;;;;5035518;28;20049;-69
2022/06/12 08:55:47;;;;;;;13.20;3.42;;;21.30;99.90;;;;;;5035828;28;20073;-67
2022/06/12 08:58:43;;;;;;;18.77;4.22;;;21.50;99.90;;;;;;5035393;28;20532;-69
2022/06/12 09:01:10;;;;;;;14.43;3.67;;;21.60;99.90;;;;;;5035477;28;20045;-68
2022/06/12 09:03:39;;;;;;;15.65;4.43;;;21.70;99.90;;;;;;5035117;28;20099;-68
2022/06/12 09:06:22;;;;;;;16.48;4.43;;;21.80;99.90;;;;;;5035108;28;20084;-68
2022/06/12 09:09:06;;;;;;;19.77;4.13;;;21.80;99.90;;;;;;5035056;28;20049;-68
2022/06/12 09:11:36;;;;;;;14.07;3.90;;;21.80;99.90;;;;;;5036071;28;20050;-68
2022/06/12 09:14:14;;;;;;;18.30;4.07;;;21.70;99.90;;;;;;5034875;28;20049;-68
2022/06/12 09:16:58;;;;;;;16.55;4.20;;;21.80;99.90;;;;;;5034929;28;20056;-68
2022/06/12 09:19:52;;;;;;;14.80;3.80;;;22.00;99.90;;;;;;5035113;28;20045;-68
2022/06/12 09:22:30;;;;;;;14.77;3.28;;;22.20;99.90;;;;;;5034219;28;20096;-68
2022/06/12 09:25:19;;;;;;;11.45;3.10;;;22.40;99.90;;;;;;5034749;28;20125;-68
2022/06/12 09:27:44;;;;;;;15.38;3.30;;;22.60;99.90;;;;;;5018184;28;20052;-68
2022/06/12 09:30:17;;;;;;;14.95;3.13;;;22.80;99.90;;;;;;5034765;28;20037;-68
2022/06/12 09:33:04;;;;;;;17.33;2.90;;;22.90;99.90;;;;;;5034606;28;20041;-68
2022/06/12 09:36:20;;;;;;;15.18;3.85;;;23.00;99.90;;;;;;5034817;28;20409;-68
2022/06/12 09:39:04;;;;;;;12.02;2.13;;;23.00;99.90;;;;;;4958894;28;20042;-69
2022/06/12 09:41:44;;;;;;;12.38;3.15;;;22.90;99.90;;;;;;4958766;28;20057;-69
2022/06/12 09:44:26;;;;;;;10.98;2.65;;;23.10;98.80;;;;;;5016338;28;20103;-69
2022/06/12 09:47:12;;;;;;;9.88;2.53;;;23.20;99.90;;;;;;5017851;28;20489;-69
2022/06/12 09:49:50;;;;;;;11.93;2.20;;;23.30;99.90;;;;;;5034147;28;20045;-68
2022/06/12 09:52:39;;;;;;;7.10;2.08;;;23.40;98.80;;;;;;5033879;28;20554;-68
2022/06/12 09:55:24;;;;;;;8.52;2.00;;;23.40;95.70;;;;;;5034154;28;20041;-68
2022/06/12 09:58:08;;;;;;;8.77;2.00;;;23.50;89.40;;;;;;5035082;28;20044;-68
2022/06/12 10:00:47;;;;;;;11.48;1.95;;;23.60;94.00;;;;;;5034130;28;20041;-69
2022/06/12 10:03:34;;;;;;;7.80;2.17;;;23.60;96.10;;;;;;5034040;28;20120;-69
2022/06/12 10:08:57;;;;;;;8.40;2.00;;;23.50;94.20;;;;;;5033287;28;20049;-68
2022/06/12 10:11:30;;;;;;;9.80;2.13;;;23.40;92.50;;;;;;5033944;28;20053;-68
2022/06/12 10:13:58;;;;;;;;;;;23.30;93.50;;;;;;5034236;28;20401;-68
2022/06/12 10:16:33;;;;;;;8.00;1.83;;;23.00;81.60;;;;;;5033779;28;19917;-68
2022/06/12 10:19:10;;;;;;;7.28;2.22;;;22.70;91.80;;;;;;5034778;28;20477;-68
2022/06/12 10:21:40;;;;;;;6.13;1.63;;;22.20;90.20;;;;;;5033785;28;20493;-68
2022/06/12 10:24:07;;;;;;;8.10;2.22;;;21.90;86.80;;;;;;5033655;28;20406;-68
2022/06/12 10:26:33;;;;;;;8.38;1.60;;;21.70;92.90;;;;;;5033598;28;20125;-68
2022/06/12 10:29:12;;;;;;;8.02;2.05;;;21.80;93.30;;;;;;5033441;28;20132;-68
2022/06/12 10:31:54;;;;;;;8.80;2.30;;;22.00;93.90;;;;;;5034143;28;20124;-68
2022/06/12 10:34:24;;;;;;;5.70;1.50;;;22.30;97.80;;;;;;5033449;28;20132;-68
2022/06/12 10:36:50;;;;;;;5.53;1.42;;;22.60;93.30;;;;;;5016939;28;20041;-68
2022/06/12 10:39:20;;;;;;;7.78;1.83;;;22.90;92.70;;;;;;5033604;28;20116;-68
2022/06/12 10:41:58;;;;;;;6.70;2.00;;;23.20;85.30;;;;;;5033371;28;20037;-68
2022/06/12 10:44:29;;;;;;;7.20;1.60;;;22.90;67.90;;;;;;5033467;28;20505;-68
2022/06/12 10:46:55;;;;;;;6.05;1.55;;;22.90;75.80;;;;;;5033192;28;20505;-68
2022/06/12 10:49:23;;;;;;;5.30;1.40;;;23.00;73.70;;;;;;5033017;28;20084;-68
2022/06/12 10:51:50;;;;;;;4.78;1.38;;;23.20;68.20;;;;;;5033078;28;20390;-68
2022/06/12 10:54:27;;;;;;;6.22;1.80;;;23.30;65.50;;;;;;5033044;28;20045;-68
2022/06/12 10:57:30;;;;;;;7.38;1.73;;;23.50;65.30;;;;;;5033704;28;20045;-68
2022/06/12 10:59:59;;;;;;;;;;;23.50;60.10;;;;;;5033372;28;20037;-68
2022/06/12 11:03:02;;;;;;;4.05;1.38;;;23.40;55.50;;;;;;5033189;28;19963;-68
2022/06/12 11:05:46;;;;;;;;;;;23.40;60.70;;;;;;5032732;28;20099;-68
2022/06/12 11:08:31;;;;;;;4.57;1.40;;;23.50;57.70;;;;;;5032762;28;19924;-68
2022/06/12 11:11:19;;;;;;;5.60;1.40;;;23.50;55.90;;;;;;5016314;28;20045;-68
2022/06/12 11:14:19;;;;;;;6.05;1.58;;;23.80;58.10;;;;;;5032597;28;20095;-68
2022/06/12 11:17:09;;;;;;;4.72;1.30;;;23.90;59.90;;;;;;5032934;28;20103;-68
2022/06/12 11:19:50;;;;;;;7.50;1.85;;;23.90;53.90;;;;;;5032536;28;20037;-68
2022/06/12 11:22:22;;;;;;;7.60;1.50;;;23.80;55.30;;;;;;5032839;28;20041;-69
2022/06/12 11:25:09;;;;;;;6.30;1.50;;;23.70;54.80;;;;;;5032475;28;20412;-68
2022/06/12 11:28:00;;;;;;;5.88;1.60;;;23.30;52.80;;;;;;5032423;28;20045;-68
2022/06/12 11:30:53;;;;;;;7.72;1.35;;;23.40;58.60;;;;;;5032482;28;20053;-68
2022/06/12 11:33:22;;;;;;;6.05;1.38;;;23.40;60.50;;;;;;5032315;28;20099;-68
2022/06/12 11:36:14;;;;;;;5.60;1.77;;;23.50;56.90;;;;;;5032533;28;20170;-68
2022/06/12 11:38:59;;;;;;;4.57;1.50;;;23.80;58.10;;;;;;5032235;28;20034;-68
2022/06/12 11:41:50;;;;;;;5.10;1.65;;;24.20;56.60;;;;;;5032315;28;20543;-69
2022/06/12 11:44:54;;;;;;;8.18;1.52;;;24.50;59.20;;;;;;5032231;28;20084;-69
2022/06/12 11:47:29;;;;;;;7.65;1.75;;;24.60;55.70;;;;;;5033340;28;20067;-68
2022/06/12 11:50:03;;;;;;;7.18;1.70;;;24.60;55.70;;;;;;5015666;28;20038;-68
2022/06/12 11:52:54;;;;;;;11.35;1.80;;;24.90;58.70;;;;;;5015877;28;20053;-68
2022/06/12 11:55:44;;;;;;;7.80;1.83;;;24.60;55.00;;;;;;5015655;28;20056;-68
2022/06/12 11:58:19;;;;;;;5.18;1.90;;;24.40;57.00;;;;;;5015793;28;20099;-68
2022/06/12 12:01:12;;;;;;;8.75;2.17;;;24.50;56.30;;;;;;5015560;28;20051;-68
2022/06/12 12:04:06;;;;;;;8.30;1.90;;;24.40;56.20;;;;;;5031940;28;20044;-68
2022/06/12 12:06:56;;;;;;;5.82;1.73;;;24.10;57.40;;;;;;5015501;28;20120;-68
2022/06/12 12:09:41;;;;;;;7.80;1.77;;;24.00;58.50;;;;;;5031863;28;20041;-68
2022/06/12 12:12:16;;;;;;;5.75;2.00;;;23.90;58.60;;;;;;5031841;28;20040;-68
2022/06/12 12:14:44;;;;;;;6.07;1.90;;;23.80;59.80;;;;;;5031848;28;20041;-69
2022/06/12 12:17:16;;;;;;;6.63;2.00;;;23.80;58.80;;;;;;5038505;28;20045;-69
2022/06/12 12:19:46;;;;;;;10.13;2.13;;;23.70;58.10;;;;;;5039529;28;20146;-69
2022/06/12 12:22:27;;;;;;;7.50;1.90;;;23.50;59.90;;;;;;5038392;28;20034;-69
2022/06/12 12:25:01;;;;;;;9.15;2.38;;;23.60;61.70;;;;;;5022148;28;20132;-69
2022/06/12 12:27:39;;;;;;;7.93;2.15;;;23.80;63.20;;;;;;5038218;28;20460;-69
2022/06/12 12:30:16;;;;;;;6.82;1.83;;;23.60;61.30;;;;;;5038340;28;20045;-69
2022/06/12 12:32:42;;;;;;;7.10;1.92;;;23.60;61.20;;;;;;5038285;28;20130;-69
2022/06/12 12:41:11;;;;;;;5.68;1.80;;;23.70;61.50;;;;;;5038105;28;20539;-69
2022/06/12 12:43:24;;;;;;;7.22;2.25;;;24.50;62.80;;;;;;5038409;28;20049;-69
2022/06/12 12:46:03;;;;;;;9.13;1.85;;;24.50;61.50;;;;;;5038161;28;20507;-69
2022/06/12 12:48:39;;;;;;;7.13;2.13;;;24.50;60.20;;;;;;5038463;28;20547;-70
2022/06/12 12:51:05;;;;;;;18.33;2.70;;;24.30;61.00;;;;;;5038421;28;20063;-70
2022/06/12 12:53:34;;;;;;;10.73;2.00;;;23.80;62.00;;;;;;5038243;28;20037;-70
2022/06/12 12:56:01;;;;;;;14.50;2.38;;;23.80;65.60;;;;;;5038346;28;20123;-70
2022/06/12 12:58:28;;;;;;;8.13;2.53;;;23.90;70.80;;;;;;5038249;28;20041;-70
2022/06/12 13:01:16;;;;;;;7.53;2.13;;;23.80;64.70;;;;;;5038262;28;20512;-70
2022/06/12 13:03:47;;;;;;;8.57;2.45;;;23.80;67.50;;;;;;5038308;28;20045;-69
2022/06/12 13:06:40;;;;;;;8.38;2.20;;;23.40;65.00;;;;;;5038028;28;20056;-70
2022/06/12 13:09:25;;;;;;;6.97;2.25;;;23.10;66.30;;;;;;5038132;28;20045;-70
2022/06/12 13:12:16;;;;;;;8.15;1.83;;;23.10;70.10;;;;;;5037974;28;20072;-70
2022/06/12 13:15:12;;;;;;;7.68;2.10;;;23.40;68.40;;;;;;4985018;28;20053;-70
2022/06/12 13:18:12;;;;;;;8.05;1.75;;;23.70;70.70;;;;;;5038058;28;20076;-69
2022/06/12 13:21:03;;;;;;;6.30;1.70;;;24.00;63.90;;;;;;5038163;28;20048;-69
2022/06/12 13:24:09;;;;;;;6.78;2.22;;;23.80;61.00;;;;;;5037880;28;20045;-70
2022/06/12 13:26:37;;;;;;;4.93;1.63;;;23.30;60.00;;;;;;5037224;28;20515;-69
2022/06/12 13:29:05;;;;;;;6.50;2.10;;;23.20;62.30;;;;;;5017874;28;20033;-70
2022/06/12 13:31:33;;;;;;;8.05;1.88;;;22.90;60.90;;;;;;5035130;28;20050;-70
2022/06/12 13:34:01;;;;;;;5.97;1.90;;;22.70;61.60;;;;;;5018645;28;20059;-70
2022/06/12 13:36:40;;;;;;;6.25;1.98;;;22.50;61.00;;;;;;5035117;28;20379;-69
2022/06/12 13:39:20;;;;;;;4.20;1.40;;;22.60;61.30;;;;;;5034712;28;20033;-69